Time;durP1;ratioP1;P1;durP2;ratioP2;P2;SDS_P1;SDS_P2;PMS_P1;PMS_P2;Temp;Humidity;BMP_temperature;BMP_pressure;BME280_temperature;BME280_humidity;BME280_pressure;Samples;Min_cycle;Max_cycle;Signal;HPM_P1;HPM_P2
2023/03/15 00:01:19;;;;;;;;;;;;;;;-140.72;100.00;53115.31;5072166;28;19999;-70
2023/03/15 00:03:44;;;;;;;;;;;;;;;-140.72;100.00;53133.59;5074954;28;19924;-70
2023/03/15 00:06:10;;;;;;;;;;;;;;;-140.72;100.00;53113.28;5075139;28;20283;-69
2023/03/15 00:08:35;;;;;;;;;;;;;;;-140.72;100.00;53145.75;5072596;28;19965;-70
2023/03/15 00:11:01;;;;;;;;;;;;;;;-140.72;100.00;53090.97;5074261;28;20030;-69
2023/03/15 00:13:27;;;;;;;;;;;;;;;-140.72;100.00;53129.53;5075085;28;20014;-69
2023/03/15 00:15:54;;;;;;;;;;;;;;;-140.72;100.00;53125.47;5105035;28;19970;-69
2023/03/15 00:18:20;;;;;;;;;;;;;;;-140.72;100.00;53123.44;5073798;28;19960;-69
2023/03/15 00:20:46;;;;;;;;;;;;;;;-140.72;100.00;53111.25;5073721;28;20391;-69
2023/03/15 00:23:11;;;;;;;;;;;;;;;-140.72;100.00;53143.72;5071656;28;19917;-70
2023/03/15 00:25:36;;;;;;;;;;;;;;;-140.72;100.00;53125.47;5068915;28;20286;-69
2023/03/15 00:28:02;;;;;;;;;;;;;;;-140.72;100.00;53123.44;5067035;28;19984;-69
2023/03/15 00:30:27;;;;;;;;;;;;;;;-140.72;100.00;53143.72;5069453;28;19921;-70
2023/03/15 00:32:52;;;;;;;;;;;;;;;-140.72;100.00;53123.44;5074765;28;19917;-69
2023/03/15 00:35:18;;;;;;;;;;;;;;;-140.72;100.00;53117.34;5071497;28;20367;-70
2023/03/15 00:37:43;;;;;;;;;;;;;;;-140.72;100.00;53117.34;5099459;28;20351;-69
2023/03/15 00:40:09;;;;;;;;;;;;;;;-140.72;100.00;53133.59;5068708;28;19920;-69
2023/03/15 00:42:34;;;;;;;;;;;;;;;-140.72;100.00;53093.00;5074302;28;19994;-69
2023/03/15 00:44:59;;;;;;;;;;;;;;;-140.72;100.00;53127.50;5102030;28;19920;-69
2023/03/15 00:47:24;;;;;;;;;;;;;;;-140.72;100.00;53157.94;5072688;28;19917;-69
2023/03/15 00:49:50;;;;;;;;;;;;;;;-140.72;100.00;53139.69;5069758;28;20007;-69
2023/03/15 00:52:16;;;;;;;;;;;;;;;-140.72;100.00;53153.88;5069410;28;20087;-69
2023/03/15 00:54:42;;;;;;;;;;;;;;;-140.72;100.00;53155.91;5073553;28;20299;-69
2023/03/15 00:57:07;;;;;;;;;;;;;;;-140.72;100.00;53162.00;5071499;28;19932;-69
2023/03/15 00:59:34;;;;;;;;;;;;;;;-140.72;100.00;53131.56;5060938;28;19931;-69
2023/03/15 01:02:03;;;;;;;;;;;;;;;-140.72;100.00;53157.94;5075726;28;20003;-69
2023/03/15 01:04:28;;;;;;;;;;;;;;;-140.72;100.00;53176.22;5069451;28;19924;-69
2023/03/15 01:06:53;;;;;;;;;;;;;;;-140.72;100.00;53147.78;5071097;28;20465;-69
2023/03/15 01:09:18;;;;;;;;;;;;;;;-140.72;100.00;53123.44;5070064;28;20363;-70
2023/03/15 01:11:44;;;;;;;;;;;;;;;-140.72;100.00;53129.53;5069016;28;19921;-69
2023/03/15 01:14:09;;;;;;;;;;;;;;;-140.72;100.00;53149.81;5073927;28;19917;-70
2023/03/15 01:16:35;;;;;;;;;;;;;;;-140.72;100.00;53145.75;5073518;28;19966;-69
2023/03/15 01:19:00;;;;;;;;;;;;;;;-140.72;100.00;53153.88;5071938;28;19920;-70
2023/03/15 01:21:25;;;;;;;;;;;;;;;-140.72;100.00;53186.34;5071664;28;19928;-70
2023/03/15 01:23:51;;;;;;;;;;;;;;;-140.72;100.00;53157.94;5070365;28;19917;-70
2023/03/15 01:26:17;;;;;;;;;;;;;;;-140.72;100.00;53149.81;5070789;28;19928;-69
2023/03/15 01:28:42;;;;;;;;;;;;;;;-140.72;100.00;53125.47;5069391;28;19917;-69
2023/03/15 01:31:13;;;;;;;;;;;;;;;-140.72;100.00;53147.78;5072769;28;19990;-69
2023/03/15 01:33:38;;;;;;;;;;;;;;;-140.72;100.00;53125.47;5101786;27;19920;-69
2023/03/15 01:36:05;;;;;;;;;;;;;;;-140.72;100.00;53153.88;5070651;28;20295;-69
2023/03/15 01:38:31;;;;;;;;;;;;;;;-140.72;100.00;53168.09;5070803;28;19979;-69
2023/03/15 01:40:56;;;;;;;;;;;;;;;-140.72;100.00;53198.53;5069923;28;19963;-70
2023/03/15 01:43:25;;;;;;;;;;;;;;;-140.72;100.00;53153.88;5070888;28;20324;-70
2023/03/15 01:45:56;;;;;;;;;;;;;;;-140.72;100.00;53157.94;5065153;28;19978;-69
2023/03/15 01:48:24;;;;;;;;;;;;;;;-140.72;100.00;53119.38;5067411;28;19916;-69
2023/03/15 01:50:50;;;;;;;;;;;;;;;-140.72;100.00;53196.50;5070124;28;19916;-71
2023/03/15 01:53:16;;;;;;;;;;;;;;;-140.72;100.00;53188.38;5069838;28;20323;-71
2023/03/15 01:55:41;;;;;;;;;;;;;;;-140.72;100.00;53166.06;5073213;28;19956;-72
2023/03/15 01:58:16;;;;;;;;;;;;;;;-140.72;100.00;53157.94;5075316;28;19928;-72
2023/03/15 02:00:41;;;;;;;;;;;;;;;-140.72;100.00;53194.47;5068053;28;20311;-71
2023/03/15 02:03:16;;;;;;;;;;;;;;;-140.72;100.00;53157.94;5074440;28;19921;-72
2023/03/15 02:05:45;;;;;;;;;;;;;;;-140.72;100.00;53137.66;5067701;28;20061;-70
2023/03/15 02:08:12;;;;;;;;;;;;;;;-140.72;100.00;53147.78;5068765;28;20370;-71
2023/03/15 02:10:42;;;;;;;;;;;;;;;-140.72;100.00;53190.41;5071385;28;19955;-71
2023/03/15 02:13:11;;;;;;;;;;;;;;;-140.72;100.00;53139.69;5067182;28;20443;-70
2023/03/15 02:15:36;;;;;;;;;;;;;;;-140.72;100.00;53166.06;5075583;28;19927;-71
2023/03/15 02:18:01;;;;;;;;;;;;;;;-140.72;100.00;53168.09;5068679;28;19916;-70
2023/03/15 02:20:36;;;;;;;;;;;;;;;-140.72;100.00;53149.81;5070633;28;20398;-71
2023/03/15 02:23:06;;;;;;;;;;;;;;;-140.72;100.00;53135.63;5065868;28;20017;-70
2023/03/15 02:25:40;;;;;;;;;;;;;;;-140.72;100.00;53149.81;5069770;28;20066;-71
2023/03/15 02:28:05;;;;;;;;;;;;;;;-140.72;100.00;53168.09;5072135;28;19927;-71
2023/03/15 02:30:31;;;;;;;;;;;;;;;-140.72;100.00;53162.00;5069261;28;19916;-71
2023/03/15 02:32:57;;;;;;;;;;;;;;;-140.72;100.00;53176.22;5071335;28;19926;-69
2023/03/15 02:35:23;;;;;;;;;;;;;;;-140.72;100.00;53162.00;5072073;28;20019;-71
2023/03/15 02:37:49;;;;;;;;;;;;;;;-140.72;100.00;53139.69;5072501;28;20350;-71
2023/03/15 02:40:19;;;;;;;;;;;;;;;-140.72;100.00;53182.28;5072155;28;19917;-71
2023/03/15 02:42:46;;;;;;;;;;;;;;;-140.72;100.00;53133.59;5103080;28;19916;-70
2023/03/15 02:45:12;;;;;;;;;;;;;;;-140.72;100.00;53184.31;5069762;28;20327;-71
2023/03/15 02:47:37;;;;;;;;;;;;;;;-140.72;100.00;53141.69;5072460;28;19916;-71
2023/03/15 02:50:02;;;;;;;;;;;;;;;-140.72;100.00;53164.03;5066863;28;19923;-71
2023/03/15 02:52:28;;;;;;;;;;;;;;;-140.72;100.00;53170.13;5071327;28;20362;-70
2023/03/15 02:54:53;;;;;;;;;;;;;;;-140.72;100.00;53188.38;5065348;28;20359;-70
2023/03/15 02:57:18;;;;;;;;;;;;;;;-140.72;100.00;53176.22;5069943;28;19924;-70
2023/03/15 02:59:44;;;;;;;;;;;;;;;-140.72;100.00;53157.94;5070719;28;19928;-70
2023/03/15 03:02:22;;;;;;;;;;;;;;;-140.72;100.00;53204.63;5064886;28;20328;-70
2023/03/15 03:04:48;;;;;;;;;;;;;;;-140.72;100.00;53125.47;5097062;28;19955;-69
2023/03/15 03:07:20;;;;;;;;;;;;;;;-140.72;100.00;53178.22;5069113;28;19958;-70
2023/03/15 03:09:45;;;;;;;;;;;;;;;-140.72;100.00;53184.31;5069201;28;20086;-70
2023/03/15 03:12:30;;;;;;;;;;;;;;;-140.72;100.00;53176.22;5071756;28;20003;-70
2023/03/15 03:14:55;;;;;;;;;;;;;;;-140.72;100.00;53162.00;5083655;28;19924;-70
2023/03/15 03:17:21;;;;;;;;;;;;;;;-140.72;100.00;53172.16;5070033;28;19925;-70
2023/03/15 03:19:46;;;;;;;;;;;;;;;-140.72;100.00;53143.72;5069011;28;19939;-70
2023/03/15 03:22:12;;;;;;;;;;;;;;;-140.72;100.00;53166.06;5067389;28;19959;-70
2023/03/15 03:24:37;;;;;;;;;;;;;;;-140.72;100.00;53168.09;5070332;28;19927;-70
2023/03/15 03:27:02;;;;;;;;;;;;;;;-140.72;100.00;53196.50;5067612;28;20362;-70
2023/03/15 03:29:28;;;;;;;;;;;;;;;-140.72;100.00;53172.16;5067828;28;19995;-71
2023/03/15 03:31:55;;;;;;;;;;;;;;;-140.72;100.00;53141.69;5076041;28;20294;-71
2023/03/15 03:34:20;;;;;;;;;;;;;;;-140.72;100.00;53184.31;5068913;28;19966;-71
2023/03/15 03:36:51;;;;;;;;;;;;;;;-140.72;100.00;53141.69;5070744;28;19921;-70
2023/03/15 03:39:17;;;;;;;;;;;;;;;-140.72;100.00;53129.53;5068019;28;20286;-70
2023/03/15 03:41:42;;;;;;;;;;;;;;;-140.72;100.00;53162.00;5070201;28;19923;-70
2023/03/15 03:44:07;;;;;;;;;;;;;;;-140.72;100.00;53164.03;5071170;28;19927;-70
2023/03/15 03:46:33;;;;;;;;;;;;;;;-140.72;100.00;53129.53;5078360;28;19990;-70
2023/03/15 03:48:59;;;;;;;;;;;;;;;-140.72;100.00;53178.22;5071742;28;19923;-70
2023/03/15 03:51:24;;;;;;;;;;;;;;;-140.72;100.00;53139.69;5071403;28;19917;-70
2023/03/15 03:53:49;;;;;;;;;;;;;;;-140.72;100.00;53145.75;5068010;28;19943;-70
2023/03/15 03:56:14;;;;;;;;;;;;;;;-140.72;100.00;53162.00;5069571;28;19973;-70
2023/03/15 03:58:40;;;;;;;;;;;;;;;-140.72;100.00;53174.19;5072940;28;19916;-70
2023/03/15 04:01:05;;;;;;;;;;;;;;;-140.72;100.00;53162.00;5071770;28;19935;-70
2023/03/15 04:03:30;;;;;;;;;;;;;;;-140.72;100.00;53149.81;5066663;28;19928;-70
2023/03/15 04:05:57;;;;;;;;;;;;;;;-140.72;100.00;53164.03;5069481;28;19927;-70
2023/03/15 04:08:22;;;;;;;;;;;;;;;-140.72;100.00;53166.06;5073112;28;20225;-70
2023/03/15 04:10:48;;;;;;;;;;;;;;;-140.72;100.00;53190.41;5072987;28;19931;-70
2023/03/15 04:13:14;;;;;;;;;;;;;;;-140.72;100.00;53178.22;5074449;28;20043;-70
2023/03/15 04:15:40;;;;;;;;;;;;;;;-140.72;100.00;53153.88;5071854;28;19923;-70
2023/03/15 04:18:05;;;;;;;;;;;;;;;-140.72;100.00;53139.69;5074338;28;19917;-70
2023/03/15 04:20:33;;;;;;;;;;;;;;;-140.72;100.00;53135.63;5072646;28;19920;-70
2023/03/15 04:22:58;;;;;;;;;;;;;;;-140.72;100.00;53162.00;5072175;28;19916;-70
2023/03/15 04:25:25;;;;;;;;;;;;;;;-140.72;100.00;53178.22;5071794;28;20224;-70
2023/03/15 04:27:57;;;;;;;;;;;;;;;-140.72;100.00;53180.25;5076544;28;19920;-70
2023/03/15 04:30:28;;;;;;;;;;;;;;;-140.72;100.00;53155.91;5073364;28;19964;-70
2023/03/15 04:33:02;;;;;;;;;;;;;;;-140.72;100.00;53159.97;5071375;28;19921;-70
2023/03/15 04:35:32;;;;;;;;;;;;;;;-140.72;100.00;53149.81;5072315;28;20332;-69
2023/03/15 04:37:57;;;;;;;;;;;;;;;-140.72;100.00;53174.19;5072455;28;20431;-69
2023/03/15 04:40:23;;;;;;;;;;;;;;;-140.72;100.00;53196.50;5072256;28;20011;-69
2023/03/15 04:42:54;;;;;;;;;;;;;;;-140.72;100.00;53162.00;5070817;28;19934;-69
2023/03/15 04:45:20;;;;;;;;;;;;;;;-140.72;100.00;53149.81;5071947;28;19944;-69
2023/03/15 04:47:45;;;;;;;;;;;;;;;-140.72;100.00;53153.88;5072445;28;19924;-70
2023/03/15 04:50:10;;;;;;;;;;;;;;;-140.72;100.00;53168.09;5070135;28;20012;-69
2023/03/15 04:52:35;;;;;;;;;;;;;;;-140.72;100.00;53170.13;5073701;28;20024;-69
2023/03/15 04:55:01;;;;;;;;;;;;;;;-140.72;100.00;53141.69;5073630;28;20015;-69
2023/03/15 04:57:26;;;;;;;;;;;;;;;-140.72;100.00;53141.69;5070009;28;19939;-69
2023/03/15 04:59:51;;;;;;;;;;;;;;;-140.72;100.00;53157.94;5072267;28;19932;-69
2023/03/15 05:02:16;;;;;;;;;;;;;;;-140.72;100.00;53151.84;5068849;28;19927;-69
2023/03/15 05:04:42;;;;;;;;;;;;;;;-140.72;100.00;53182.28;5075252;28;19939;-69
2023/03/15 05:07:07;;;;;;;;;;;;;;;-140.72;100.00;53153.88;5074407;28;19920;-70
2023/03/15 05:09:36;;;;;;;;;;;;;;;-140.72;100.00;53127.50;5068710;28;20390;-69
2023/03/15 05:12:02;;;;;;;;;;;;;;;-140.72;100.00;53121.41;5072309;28;20295;-70
2023/03/15 05:14:28;;;;;;;;;;;;;;;-140.72;100.00;53159.97;5063711;28;20030;-69
2023/03/15 05:16:54;;;;;;;;;;;;;;;-140.72;100.00;53186.34;5071126;28;19916;-69
2023/03/15 05:19:20;;;;;;;;;;;;;;;-140.72;100.00;53218.81;5077218;28;20087;-69
2023/03/15 05:21:45;;;;;;;;;;;;;;;-140.72;100.00;53162.00;5071059;28;19956;-69
2023/03/15 05:24:11;;;;;;;;;;;;;;;-140.72;100.00;53176.22;5070742;28;19920;-69
2023/03/15 05:26:36;;;;;;;;;;;;;;;-140.72;100.00;53168.09;5065784;28;19928;-69
2023/03/15 05:29:02;;;;;;;;;;;;;;;-140.72;100.00;53151.84;5072814;28;19927;-69
2023/03/15 05:31:28;;;;;;;;;;;;;;;-140.72;100.00;53145.75;5072036;28;20367;-70
2023/03/15 05:33:53;;;;;;;;;;;;;;;-140.72;100.00;53155.91;5078867;28;19974;-70
2023/03/15 05:36:18;;;;;;;;;;;;;;;-140.72;100.00;53147.78;5074800;28;19924;-69
2023/03/15 05:38:43;;;;;;;;;;;;;;;-140.72;100.00;53153.88;5073164;28;19920;-69
2023/03/15 05:41:09;;;;;;;;;;;;;;;-140.72;100.00;53147.78;5079269;28;20374;-70
2023/03/15 05:43:34;;;;;;;;;;;;;;;-140.72;100.00;53145.75;5068486;28;20287;-70
2023/03/15 05:45:59;;;;;;;;;;;;;;;-140.72;100.00;53170.13;5075373;28;20255;-69
2023/03/15 05:48:24;;;;;;;;;;;;;;;-140.72;100.00;53172.16;5077292;28;20015;-70
2023/03/15 05:50:49;;;;;;;;;;;;;;;-140.72;100.00;53145.75;5079647;28;20037;-70
2023/03/15 05:53:15;;;;;;;;;;;;;;;-140.72;100.00;53145.75;5074259;28;19920;-69
2023/03/15 05:55:40;;;;;;;;;;;;;;;-140.72;100.00;53153.88;5071018;28;19927;-69
2023/03/15 05:58:05;;;;;;;;;;;;;;;-140.72;100.00;53157.94;5061671;28;19916;-70
2023/03/15 06:00:31;;;;;;;;;;;;;;;-140.72;100.00;53149.81;5071581;28;20241;-69
2023/03/15 06:02:56;;;;;;;;;;;;;;;-140.72;100.00;53109.22;5068260;28;20018;-70
2023/03/15 06:05:21;;;;;;;;;;;;;;;-140.72;100.00;53170.13;5074265;28;20002;-69
2023/03/15 06:07:46;;;;;;;;;;;;;;;-140.72;100.00;53178.22;5083355;28;19924;-72
2023/03/15 06:10:12;;;;;;;;;;;;;;;-140.72;100.00;53141.69;5069708;28;19923;-72
2023/03/15 06:12:38;;;;;;;;;;;;;;;-140.72;100.00;53153.88;5065175;28;20240;-71
2023/03/15 06:15:03;;;;;;;;;;;;;;;-140.72;100.00;53180.25;5070174;28;19921;-69
2023/03/15 06:17:28;;;;;;;;;;;;;;;-140.72;100.00;53162.00;5070836;28;20382;-71
2023/03/15 06:19:54;;;;;;;;;;;;;;;-140.72;100.00;53170.13;5072943;28;19920;-71
2023/03/15 06:22:19;;;;;;;;;;;;;;;-140.72;100.00;53178.22;5071491;28;20067;-72
2023/03/15 06:24:45;;;;;;;;;;;;;;;-140.72;100.00;53157.94;5067143;28;20351;-71
2023/03/15 06:27:10;;;;;;;;;;;;;;;-140.72;100.00;53206.66;5065991;28;19928;-70
2023/03/15 06:29:35;;;;;;;;;;;;;;;-140.72;100.00;53141.69;5072861;28;19917;-73
2023/03/15 06:32:00;;;;;;;;;;;;;;;-140.72;100.00;53168.09;5070693;28;19920;-72
2023/03/15 06:34:25;;;;;;;;;;;;;;;-140.72;100.00;53162.00;5096229;28;19916;-71
2023/03/15 06:36:54;;;;;;;;;;;;;;;-140.72;100.00;53168.09;5075282;28;19931;-69
2023/03/15 06:39:20;;;;;;;;;;;;;;;-140.72;100.00;53174.19;5071351;28;20458;-69
2023/03/15 06:41:45;;;;;;;;;;;;;;;-140.72;100.00;53145.75;5075956;28;20002;-69
2023/03/15 06:44:10;;;;;;;;;;;;;;;-140.72;100.00;53147.78;5071815;28;20003;-69
2023/03/15 06:46:36;;;;;;;;;;;;;;;-140.72;100.00;53180.25;5075135;28;19960;-69
2023/03/15 06:49:02;;;;;;;;;;;;;;;-140.72;100.00;53178.22;5087549;28;19920;-69
2023/03/15 06:51:27;;;;;;;;;;;;;;;-140.72;100.00;53168.09;5087954;28;19958;-69
2023/03/15 06:53:52;;;;;;;;;;;;;;;-140.72;100.00;53135.63;5070453;28;19928;-70
2023/03/15 06:56:18;;;;;;;;;;;;;;;-140.72;100.00;53149.81;5076022;28;20228;-70
2023/03/15 06:58:43;;;;;;;;;;;;;;;-140.72;100.00;53176.22;5062669;28;20023;-70
2023/03/15 07:01:11;;;;;;;;;;;;;;;-140.72;100.00;53137.66;5069444;28;19916;-70
2023/03/15 07:03:36;;;;;;;;;;;;;;;-140.72;100.00;53135.63;5069878;28;19932;-71
2023/03/15 07:06:01;;;;;;;;;;;;;;;-140.72;100.00;53157.94;5069885;28;20405;-71
2023/03/15 07:08:27;;;;;;;;;;;;;;;-140.72;100.00;53172.16;5071472;28;19947;-71
2023/03/15 07:10:52;;;;;;;;;;;;;;;-140.72;100.00;53174.19;5071259;28;19927;-74
2023/03/15 07:13:18;;;;;;;;;;;;;;;-140.72;100.00;53172.16;5071262;28;19921;-73
2023/03/15 07:15:43;;;;;;;;;;;;;;;-140.72;100.00;53137.66;5067387;28;19920;-69
2023/03/15 07:18:08;;;;;;;;;;;;;;;-140.72;100.00;53166.06;5071354;28;19920;-69
2023/03/15 07:20:33;;;;;;;;;;;;;;;-140.72;100.00;53166.06;5081812;28;20023;-69
2023/03/15 07:22:59;;;;;;;;;;;;;;;-140.72;100.00;53157.94;5072707;28;19975;-69
2023/03/15 07:25:24;;;;;;;;;;;;;;;-140.72;100.00;53133.59;5072568;28;20200;-69
2023/03/15 07:27:50;;;;;;;;;;;;;;;-140.72;100.00;53170.13;5070033;28;20017;-69
2023/03/15 07:30:15;;;;;;;;;;;;;;;-140.72;100.00;53172.16;5069310;28;19932;-69
2023/03/15 07:32:41;;;;;;;;;;;;;;;-140.72;100.00;53133.59;5067099;28;19924;-70
2023/03/15 07:35:06;;;;;;;;;;;;;;;-140.72;100.00;53157.94;5065380;28;19921;-70
2023/03/15 07:37:32;;;;;;;;;;;;;;;-140.72;100.00;53111.25;5103009;28;19921;-70
2023/03/15 07:39:59;;;;;;;;;;;;;;;-140.72;100.00;53145.75;5073618;28;19924;-70
2023/03/15 07:42:24;;;;;;;;;;;;;;;-140.72;100.00;53135.63;5075057;28;19921;-70
2023/03/15 07:44:50;;;;;;;;;;;;;;;-140.72;100.00;53111.25;5070331;28;19986;-71
2023/03/15 07:47:15;;;;;;;;;;;;;;;-140.72;100.00;53153.88;5072783;28;19951;-71
2023/03/15 07:49:40;;;;;;;;;;;;;;;-140.72;100.00;53109.22;5073930;28;19916;-75
2023/03/15 07:52:06;;;;;;;;;;;;;;;-140.72;100.00;53133.59;5074423;28;19965;-73
2023/03/15 07:54:33;;;;;;;;;;;;;;;-140.72;100.00;53121.41;5071391;28;19917;-72
2023/03/15 07:56:58;;;;;;;;;;;;;;;-140.72;100.00;53129.53;5074949;28;19985;-72
2023/03/15 07:59:23;;;;;;;;;;;;;;;-140.72;100.00;53086.91;5071264;28;19954;-70
2023/03/15 08:01:54;;;;;;;;;;;;;;;-140.72;100.00;53147.78;5075486;28;19920;-74
2023/03/15 08:04:20;;;;;;;;;;;;;;;-140.72;100.00;53170.13;5073560;28;19924;-69
2023/03/15 08:06:45;;;;;;;;;;;;;;;-140.72;100.00;53133.59;5103955;28;19917;-70
2023/03/15 08:09:10;;;;;;;;;;;;;;;-140.72;100.00;53125.47;5078258;28;20009;-70
2023/03/15 08:11:36;;;;;;;;;;;;;;;-140.72;100.00;53123.44;5070807;28;20295;-70
2023/03/15 08:19:09;;;;;;;;;;;;;;;-140.72;100.00;53109.22;5066845;28;19925;-70
2023/03/15 08:21:35;;;;;;;;;;;;;;;-140.72;100.00;53147.78;5059988;28;20345;-70
2023/03/15 08:24:00;;;;;;;;;;;;;;;-140.72;100.00;53131.56;5076111;28;19920;-70
2023/03/15 08:26:25;;;;;;;;;;;;;;;-140.72;100.00;53151.84;5064861;28;19921;-70
2023/03/15 08:28:50;;;;;;;;;;;;;;;-140.72;100.00;53117.34;5066287;28;20316;-70
2023/03/15 08:31:16;;;;;;;;;;;;;;;-140.72;100.00;53101.13;5060970;28;19924;-70
2023/03/15 08:33:41;;;;;;;;;;;;;;;-140.72;100.00;53111.25;5065739;28;20483;-70
2023/03/15 08:36:06;;;;;;;;;;;;;;;-140.72;100.00;53141.69;5068541;28;20278;-69
2023/03/15 08:38:31;;;;;;;;;;;;;;;-140.72;100.00;53115.31;5070561;28;19920;-70
2023/03/15 08:40:57;;;;;;;;;;;;;;;-140.72;100.00;53119.38;5068664;28;19927;-69
2023/03/15 08:43:22;;;;;;;;;;;;;;;-140.72;100.00;53080.81;5064124;28;19936;-70
2023/03/15 08:45:49;;;;;;;;;;;;;;;-140.72;100.00;53103.16;5070535;28;20392;-70
2023/03/15 08:48:14;;;;;;;;;;;;;;;-140.72;100.00;53105.19;5066021;28;19931;-70
2023/03/15 08:50:39;;;;;;;;;;;;;;;-140.72;100.00;53068.66;5066733;28;19920;-70
2023/03/15 08:53:05;;;;;;;;;;;;;;;-140.72;100.00;53133.59;5065504;28;19920;-70
2023/03/15 08:55:30;;;;;;;;;;;;;;;-140.72;100.00;53086.91;5068679;28;19920;-70
2023/03/15 08:57:55;;;;;;;;;;;;;;;-140.72;100.00;53097.06;5068729;28;19932;-70
2023/03/15 09:00:21;;;;;;;;;;;;;;;-140.72;100.00;53088.94;5066455;28;19928;-69
2023/03/15 09:02:47;;;;;;;;;;;;;;;-140.72;100.00;53064.59;5068184;28;19921;-69
2023/03/15 09:05:14;;;;;;;;;;;;;;;-140.72;100.00;53072.69;5066470;28;19967;-69
2023/03/15 09:07:41;;;;;;;;;;;;;;;-140.72;100.00;53097.06;5073521;28;19925;-69
2023/03/15 09:10:07;;;;;;;;;;;;;;;-140.72;100.00;53097.06;5074552;28;19921;-69
2023/03/15 09:12:32;;;;;;;;;;;;;;;-140.72;100.00;53107.19;5076099;28;20374;-69
2023/03/15 09:14:58;;;;;;;;;;;;;;;-140.72;100.00;53066.63;5067328;28;20015;-69
2023/03/15 09:17:23;;;;;;;;;;;;;;;-140.72;100.00;53084.88;5054369;28;19936;-69
2023/03/15 09:19:48;;;;;;;;;;;;;;;-140.72;89.32;53068.66;5049610;28;20663;-69
2023/03/15 09:22:13;;;;;;;;;;;;;;;-140.72;65.32;53064.59;5051369;28;19946;-69
2023/03/15 09:24:38;;;;;;;;;;;;;;;-140.72;39.16;53058.50;5051287;28;20020;-74
2023/03/15 09:27:04;;;;;;;;;;;;;;;-140.72;19.67;53080.81;5054176;28;20287;-71
2023/03/15 09:29:29;;;;;;;;;;;;;;;-140.72;0.00;53076.75;5045021;28;19927;-69
2023/03/15 09:31:55;;;;;;;;;;;;;;;-140.72;0.00;53046.31;5053507;28;19916;-69
2023/03/15 09:34:21;;;;;;;;;;;;;;;-140.72;0.00;53086.91;5054246;28;19921;-69
2023/03/15 09:36:51;;;;;;;;;;;;;;;-140.72;0.00;53068.66;5052301;28;19924;-69
2023/03/15 09:39:17;;;;;;;;;;;;;;;-140.72;0.00;53044.28;5050360;28;20370;-69
2023/03/15 09:41:43;;;;;;;;;;;;;;;-140.72;0.00;53074.72;5049246;28;20014;-69
2023/03/15 09:44:18;;;;;;;;;;;;;;;-140.72;0.00;53040.22;5045790;28;19921;-69
2023/03/15 09:46:46;;;;;;;;;;;;;;;-140.72;0.00;53068.66;5047844;28;19933;-70
2023/03/15 09:49:20;;;;;;;;;;;;;;;-140.72;0.00;53034.16;5048062;28;20386;-70
2023/03/15 09:51:56;;;;;;;;;;;;;;;-140.72;0.00;53005.72;5047648;28;19921;-69
2023/03/15 09:57:01;;;;;;;;;;;;;;;-140.72;0.00;53068.66;1968423;22;20236;31
2023/03/15 09:59:53;;;;;;;;;;;;;;;-140.72;0.00;53013.84;5007125;28;20358;-71
2023/03/15 10:02:27;;;;;;;;;;;;;;;-140.72;0.00;52993.56;5002946;28;19922;-71
2023/03/15 10:04:59;;;;;;;;;;;;;;;-140.72;0.00;53030.09;5020837;28;20409;-71
2023/03/15 10:07:31;;;;;;;;;;;;;;;-140.72;0.00;53019.94;5017981;28;19922;-70
2023/03/15 10:09:57;;;;;;;;;;;;;;;-140.72;0.00;53024.00;5015172;28;19944;-70
2023/03/15 10:12:23;;;;;;;;;;;;;;;-140.72;0.00;53040.22;5014254;28;20303;-70
2023/03/15 10:15:17;;;;;;;;;;;;;;;-140.72;0.00;53026.03;5021080;28;19924;-70
2023/03/15 10:17:50;;;;;;;;;;;;;;;-140.72;0.00;53019.94;5002277;28;20379;-69
2023/03/15 10:20:40;;;;;;;;;;;;;;;-140.72;0.00;53044.28;5025543;28;20008;-69
2023/03/15 10:23:18;;;;;;;;;;;;;;;-140.72;0.00;52991.53;5032793;28;19921;-69
2023/03/15 10:25:52;;;;;;;;;;;;;;;-140.72;0.00;53019.94;5025195;28;19967;-70
2023/03/15 10:28:27;;;;;;;;;;;;;;;-140.72;0.00;53003.69;5027394;28;19963;-70
2023/03/15 10:30:52;;;;;;;;;;;;;;;-140.72;0.00;53001.66;5028606;28;19932;-69
2023/03/15 10:33:36;;;;;;;;;;;;;;;-140.72;0.00;52991.53;5030728;28;19917;-69
2023/03/15 10:36:03;;;;;;;;;;;;;;;-140.72;0.00;52950.94;5025429;28;19917;-69
2023/03/15 10:41:39;;;;;;;;;;;;;;;-140.72;0.00;52979.34;5033320;28;19928;-70
2023/03/15 10:44:16;;;;;;;;;;;;;;;-140.72;0.00;52991.53;5048709;28;19918;-70
2023/03/15 10:46:41;;;;;;;;;;;;;;;-140.72;0.00;52997.63;5033224;28;19921;-70
2023/03/15 10:49:11;;;;;;;;;;;;;;;-140.72;0.00;52932.66;5042747;28;19940;-70
2023/03/15 10:51:57;;;;;;;;;;;;;;;-140.72;0.00;52936.72;5035016;28;19929;-71
2023/03/15 10:54:22;;;;;;;;;;;;;;;-140.72;0.00;52983.41;5029544;28;19921;-72
2023/03/15 10:56:57;;;;;;;;;;;;;;;-140.72;0.00;52930.66;5032637;28;19923;-72
2023/03/15 10:59:23;;;;;;;;;;;;;;;-140.72;0.00;52910.34;5028286;28;19922;-72
2023/03/15 11:01:51;;;;;;;;;;;;;;;-140.72;0.00;52898.16;5024226;28;19943;-72
2023/03/15 11:04:18;;;;;;;;;;;;;;;-140.72;0.00;52812.94;5038877;28;19928;-71
2023/03/15 11:06:56;;;;;;;;;;;;;;;-140.72;0.00;52829.19;5043904;28;20629;-71
2023/03/15 11:09:22;;;;;;;;;;;;;;;-140.72;0.00;52735.81;5021804;28;20355;-71
2023/03/15 11:11:50;;;;;;;;;;;;;;;-140.72;0.00;52697.28;5024633;28;19924;-71
2023/03/15 11:14:16;;;;;;;;;;;;;;;-140.72;0.00;52721.63;5036044;28;19925;-73
2023/03/15 11:16:45;;;;;;;;;;;;;;;-140.72;0.00;52674.94;5026732;28;19979;-70
2023/03/15 11:19:14;;;;;;;;;;;;;;;-140.72;0.00;52707.41;5033848;28;19917;-71
2023/03/15 11:21:40;;;;;;;;;;;;;;;-140.72;0.00;52709.44;5040086;28;20291;-70
2023/03/15 11:24:06;;;;;;;;;;;;;;;-140.72;0.00;52681.03;5037408;28;19951;-71
2023/03/15 11:26:38;;;;;;;;;;;;;;;-140.72;0.00;52670.88;5032510;28;19917;-72
2023/03/15 11:35:31;;;;;;;;;;;;;;;-140.72;0.00;52575.50;5032953;28;19921;-73
2023/03/15 11:38:00;;;;;;;;;;;;;;;-140.72;0.00;52565.38;5039067;28;19921;-74
2023/03/15 11:40:31;;;;;;;;;;;;;;;-140.72;0.00;52522.75;5040258;28;19924;-74
2023/03/15 11:42:56;;;;;;;;;;;;;;;-140.72;0.00;52595.81;5038336;28;20015;-70
2023/03/15 11:45:31;;;;;;;;;;;;;;;-140.72;0.00;52583.63;5022466;28;20007;-71
2023/03/15 11:47:58;;;;;;;;;;;;;;;-140.72;0.00;52573.50;5028712;28;20382;-71
2023/03/15 11:50:28;;;;;;;;;;;;;;;-140.72;0.00;52632.34;5036670;28;19921;-70
2023/03/15 11:52:54;;;;;;;;;;;;;;;-140.72;0.00;52565.38;5035728;28;19921;-70
2023/03/15 11:55:26;;;;;;;;;;;;;;;-140.72;0.00;52494.34;5028248;28;19967;-70
2023/03/15 11:57:52;;;;;;;;;;;;;;;-140.72;0.00;52605.94;5044838;28;19921;-70
2023/03/15 12:00:25;;;;;;;;;;;;;;;-140.72;0.00;52583.63;5023859;28;19921;-70
2023/03/15 12:02:58;;;;;;;;;;;;;;;-140.72;0.00;52506.53;5030875;28;20357;-70
2023/03/15 12:05:42;;;;;;;;;;;;;;;-140.72;0.00;52549.13;5036260;28;19921;-69
2023/03/15 12:08:16;;;;;;;;;;;;;;;-140.72;0.00;52512.59;5039534;28;19921;-69
2023/03/15 12:10:45;;;;;;;;;;;;;;;-140.72;0.00;52504.50;5031171;28;20009;-70
2023/03/15 12:13:16;;;;;;;;;;;;;;;-140.72;0.00;52528.84;5038280;28;19921;-70
2023/03/15 12:15:43;;;;;;;;;;;;;;;-140.72;0.00;52530.88;5033773;28;19925;-70
2023/03/15 12:18:12;;;;;;;;;;;;;;;-140.72;0.00;52445.66;5039151;28;19917;-70
2023/03/15 12:20:39;;;;;;;;;;;;;;;-140.72;0.00;52532.91;5031354;28;19955;-71
2023/03/15 12:23:04;;;;;;;;;;;;;;;-140.72;0.00;52545.06;5039215;28;19917;-70
2023/03/15 12:25:34;;;;;;;;;;;;;;;-140.72;0.00;52565.38;5034191;28;19924;-70
2023/03/15 12:28:03;;;;;;;;;;;;;;;-140.72;0.00;52541.03;5032803;28;19984;-70
2023/03/15 12:30:35;;;;;;;;;;;;;;;-140.72;0.00;52543.03;5049912;28;19956;-70
2023/03/15 12:33:01;;;;;;;;;;;;;;;-140.72;0.00;52480.16;5036351;28;19921;-70
2023/03/15 12:35:28;;;;;;;;;;;;;;;-140.72;0.00;52504.50;5049173;28;19921;-70
2023/03/15 12:37:55;;;;;;;;;;;;;;;-140.72;0.00;52419.28;5051116;28;19929;-69
2023/03/15 12:40:23;;;;;;;;;;;;;;;-140.72;0.00;52484.19;5034220;28;19921;-70